Flight Track Log - Related Links

Times and Time Zones

All times are in EDT time to prevent confusion due to time zone crossing. See the EJA396 flight status page for this flight to view local times or setup timezone preferences in your user account.

Time Position Orientation Groundspeed Altitude Reporting Facility
EDT Latitude Longitude Course Direction KTS MPH feet Rate Location/Type
Sun 09:44:00 AM 44.3872 -72.9861 134° Southeast 274 315 7,700  Level Boston Center
Sun 09:45:00 AM 44.3167 -72.9103 142° Southeast 282 325 9,900 1,150 Climbing Boston Center
Sun 09:46:00 AM 44.2461 -72.8283 140° Southeast 311 358 10,000 50 Climbing Boston Center
Sun 09:47:00 AM 44.1692 -72.7469 143° Southeast 343 395 10,000  Level Boston Center
Sun 09:48:00 AM 44.0264 -72.6923 134° Southeast  Level FlightAware Approximate
Sun 09:48:00 AM 44.0861 -72.6569 142° Southeast 348 400 10,000  Level Boston Center
Sun 09:49:00 AM 43.9646 -72.6041 134° Southeast  Level FlightAware Approximate
Sun 09:49:00 AM 44.0092 -72.5758 143° Southeast 343 395 10,000  Level Boston Center
Sun 09:50:00 AM 43.9425 -72.5006 141° Southeast 343 395 10,000  Level Boston Center
Sun 09:51:00 AM 43.8656 -72.4200 143° Southeast 349 402 10,000  Level Boston Center
Sun 09:52:00 AM 43.7883 -72.3367 142° Southeast 349 402 10,000  Level Boston Center
Sun 09:53:00 AM 43.7111 -72.2533 142° Southeast 349 402 10,000  Level Boston Center
Sun 09:54:00 AM 43.6381 -72.1619 138° Southeast 349 402 10,000  Level Boston Center
Sun 09:55:00 AM 43.5731 -72.0675 134° Southeast 349 402 10,000  Level Boston Center
Sun 09:56:00 AM 43.5061 -71.9764 135° Southeast 344 396 10,000  Level Boston Center
Sun 09:57:00 AM 43.4369 -71.8797 135° Southeast 344 396 10,000  Level Boston Center
Sun 09:58:00 AM 43.3761 -71.7975 135° Southeast 349 402 10,000  Level Boston Center
Sun 09:59:00 AM 43.3025 -71.6897 133° Southeast 349 402 10,000  Level Boston Center
Sun 10:00:00 AM 43.2206 -71.5997 141° Southeast 349 402 10,000  Level Boston Center
Sun 10:00:28 AM 43.1833 -71.5667 147° Southeast 349 402 10,000  Level KA90
Sun 10:01:28 AM 43.1000 -71.5000 150° Southeast 349 402 10,000  Level KA90
Sun 10:02:00 AM 43.0486 -71.4769 162° South 349 402 10,000  Level Boston Center
Sun 10:03:00 AM 42.9731 -71.4214 152° Southeast 343 395 10,000  Level Boston Center
Sun 10:04:00 AM 42.8767 -71.3550 153° Southeast 348 400 10,000  Level Boston Center
Sun 10:04:28 AM 42.8333 -71.3167 147° Southeast 350 403 10,000  Level KA90
Sun 10:05:00 AM 42.7886 -71.3028 167° South 348 400 10,000  Level Boston Center
Sun 10:06:00 AM 42.6964 -71.2564 160° South 348 400 10,000  Level Boston Center
Sun 10:07:00 AM 42.6022 -71.2075 159° South 359 413 10,000  Level Boston Center
Sun 10:07:23 AM 42.5667 -71.1833 153° Southeast 353 406 10,000  Level KA90
Sun 10:08:23 AM 42.4833 -71.1167 149° Southeast 351 404 10,000  Level KA90
Sun 10:09:28 AM 42.4000 -71.0500 149° Southeast 349 402 10,000  Level KA90
Sun 10:10:28 AM 42.3000 -70.9833 154° Southeast 350 403 10,000  Level KA90
Sun 10:11:29 AM 42.2167 -70.9333 156° South 346 398 10,000  Level KA90
Sun 10:12:29 AM 42.1333 -70.9000 163° South 348 400 10,000  Level KA90
Sun 10:13:35 AM 42.0167 -70.8667 168° South 348 400 10,000  Level KA90
Sun 10:14:29 AM 41.9333 -70.8333 163° South 350 403 10,000  Level KA90
Sun 10:16:00 AM 41.7991 -70.7995 160° South  Level FlightAware Approximate
Sun 10:23:00 AM 41.3934 -70.6139 North  Level Estimated
Sun 10:24:00 AM 41.3934 -70.6139 North  Level Estimated
Sun 10:25:00 AM 41.3934 -70.6139 North  Level Estimated
Sun 10:26:00 AM 41.3934 -70.6139 North  Level Estimated
Sun 10:27:00 AM 41.3934 -70.6139 North  Level Estimated
Sun 10:28:00 AM 41.3934 -70.6139 North  Level Estimated
Sun 10:29:00 AM 41.3934 -70.6139 North  Level Estimated
Sun 10:30:00 AM 41.3934 -70.6139 North  Level Estimated

Login

Don't have an account? Register now (free) for customized features, flight alerts, and more!